createdAt,value
2019-01-24T00:00:49.874Z,989.46
2019-01-24T00:01:49.887Z,989.47
2019-01-24T00:02:49.903Z,989.47
2019-01-24T00:03:49.914Z,989.49
2019-01-24T00:04:49.929Z,989.53
2019-01-24T00:05:49.940Z,989.51
2019-01-24T00:06:49.955Z,989.53
2019-01-24T00:07:49.967Z,989.57
2019-01-24T00:08:49.979Z,989.55
2019-01-24T00:09:49.995Z,989.56
2019-01-24T00:10:50.005Z,989.55
2019-01-24T00:11:50.018Z,989.55
2019-01-24T00:12:50.031Z,989.62
2019-01-24T00:13:50.045Z,989.58
2019-01-24T00:14:50.057Z,989.61
2019-01-24T00:15:50.073Z,989.63
2019-01-24T00:16:50.084Z,989.67
2019-01-24T00:17:50.101Z,989.66
2019-01-24T00:18:50.108Z,989.66
2019-01-24T00:19:50.122Z,989.67
2019-01-24T00:20:50.139Z,989.66
2019-01-24T00:21:50.149Z,989.65
2019-01-24T00:22:50.162Z,989.67
2019-01-24T00:23:50.175Z,989.66
2019-01-24T00:24:50.192Z,989.7
2019-01-24T00:25:50.204Z,989.68
2019-01-24T00:26:50.220Z,989.7
2019-01-24T00:27:50.228Z,989.73
2019-01-24T00:28:50.239Z,989.72
2019-01-24T00:29:50.256Z,989.74
2019-01-24T00:30:50.269Z,989.76
2019-01-24T00:31:50.278Z,989.79
2019-01-24T00:32:50.293Z,989.77
2019-01-24T00:33:50.303Z,989.86
2019-01-24T00:34:50.318Z,989.85
2019-01-24T00:35:50.331Z,989.84
2019-01-24T00:36:50.344Z,989.85
2019-01-24T00:37:50.356Z,989.87
2019-01-24T00:38:50.377Z,989.86
2019-01-24T00:39:50.384Z,989.87
2019-01-24T00:40:50.403Z,989.88
2019-01-24T00:41:50.409Z,989.92
2019-01-24T00:42:50.426Z,989.93
2019-01-24T00:43:50.442Z,989.94
2019-01-24T00:44:50.447Z,989.93
2019-01-24T00:45:50.460Z,989.93
2019-01-24T00:46:50.474Z,989.94
2019-01-24T00:47:50.488Z,989.96
2019-01-24T00:48:50.503Z,989.95
2019-01-24T00:49:50.519Z,989.94
2019-01-24T00:50:50.528Z,989.96
2019-01-24T00:51:50.541Z,989.94
2019-01-24T00:52:50.553Z,989.94
2019-01-24T00:53:50.567Z,989.93
2019-01-24T00:54:50.581Z,989.95
2019-01-24T00:55:50.596Z,989.96
2019-01-24T00:56:50.606Z,989.95
2019-01-24T00:57:50.619Z,989.97
2019-01-24T00:58:50.632Z,990.04
2019-01-24T00:59:50.649Z,989.99
2019-01-24T01:00:50.657Z,990.03
2019-01-24T01:01:50.672Z,990.05
2019-01-24T01:02:50.684Z,990.05
2019-01-24T01:03:50.697Z,990.03
2019-01-24T01:04:50.710Z,990.05
2019-01-24T01:05:50.724Z,990.01
2019-01-24T01:06:50.740Z,990.03
2019-01-24T01:07:50.754Z,990.04
2019-01-24T01:08:50.762Z,990.05
2019-01-24T01:09:50.778Z,990.05
2019-01-24T01:10:50.789Z,990.02
2019-01-24T01:11:50.801Z,990.05
2019-01-24T01:12:50.818Z,990.05
2019-01-24T01:13:50.828Z,990.05
2019-01-24T01:14:50.844Z,990.11
2019-01-24T01:15:50.853Z,990.09
2019-01-24T01:16:50.866Z,990.15
2019-01-24T01:17:50.883Z,990.13
2019-01-24T01:18:50.892Z,990.2
2019-01-24T01:19:50.910Z,990.17
2019-01-24T01:20:50.919Z,990.2
2019-01-24T01:21:50.930Z,990.23
2019-01-24T01:22:50.945Z,990.27
2019-01-24T01:23:50.958Z,990.19
2019-01-24T01:24:50.970Z,990.21
2019-01-24T01:25:50.983Z,990.27
2019-01-24T01:26:50.997Z,990.34
2019-01-24T01:27:51.009Z,990.31
2019-01-24T01:28:51.024Z,990.35
2019-01-24T01:29:51.036Z,990.36
2019-01-24T01:30:51.050Z,990.35
2019-01-24T01:31:51.065Z,990.42
2019-01-24T01:32:51.074Z,990.37
2019-01-24T01:33:51.088Z,990.38
2019-01-24T01:34:51.102Z,990.39
2019-01-24T01:35:51.114Z,990.35
2019-01-24T01:36:51.126Z,990.36
2019-01-24T01:37:51.145Z,990.36
2019-01-24T01:38:51.210Z,990.36
2019-01-24T01:39:51.166Z,990.33
2019-01-24T01:40:51.184Z,990.36
2019-01-24T01:41:51.193Z,990.39
2019-01-24T01:42:51.216Z,990.38
2019-01-24T01:43:51.220Z,990.41
2019-01-24T01:44:51.236Z,990.35
2019-01-24T01:45:51.246Z,990.39
2019-01-24T01:46:51.261Z,990.4
2019-01-24T01:47:51.274Z,990.46
2019-01-24T01:48:51.284Z,990.43
2019-01-24T01:49:51.296Z,990.44
2019-01-24T01:50:51.310Z,990.42
2019-01-24T01:51:51.328Z,990.43
2019-01-24T01:52:51.337Z,990.41
2019-01-24T01:53:51.500Z,990.41
2019-01-24T01:54:51.361Z,990.47
2019-01-24T01:55:51.375Z,990.39
2019-01-24T01:56:51.392Z,990.4
2019-01-24T01:57:51.402Z,990.41
2019-01-24T01:58:51.417Z,990.45
2019-01-24T01:59:51.431Z,990.43
2019-01-24T02:00:51.444Z,990.43
2019-01-24T02:01:51.453Z,990.42
2019-01-24T02:02:51.467Z,990.43
2019-01-24T02:03:51.478Z,990.43
2019-01-24T02:04:51.491Z,990.41
2019-01-24T02:05:51.509Z,990.45
2019-01-24T02:06:51.523Z,990.44
2019-01-24T02:07:51.532Z,990.48
2019-01-24T02:08:51.547Z,990.53
2019-01-24T02:09:51.556Z,990.52
2019-01-24T02:10:51.571Z,990.58
2019-01-24T02:11:51.584Z,990.57
2019-01-24T02:12:51.596Z,990.55
2019-01-24T02:13:51.609Z,990.58
2019-01-24T02:14:51.623Z,990.65
2019-01-24T02:15:51.643Z,990.63
2019-01-24T02:16:51.652Z,990.67
2019-01-24T02:17:51.661Z,990.71
2019-01-24T02:18:51.677Z,990.73
2019-01-24T02:19:51.698Z,990.72
2019-01-24T02:20:51.704Z,990.75
2019-01-24T02:21:51.715Z,990.73
2019-01-24T02:22:51.729Z,990.74
2019-01-24T02:23:51.741Z,990.77
2019-01-24T02:24:51.755Z,990.72
2019-01-24T02:25:51.769Z,990.75
2019-01-24T02:26:51.780Z,990.74
2019-01-24T02:27:51.793Z,990.73
2019-01-24T02:28:51.807Z,990.75
2019-01-24T02:29:51.819Z,990.78
2019-01-24T02:30:51.833Z,990.77
2019-01-24T02:31:51.848Z,990.79
2019-01-24T02:32:51.859Z,990.83
2019-01-24T02:33:51.878Z,990.76
2019-01-24T02:34:51.885Z,990.78
2019-01-24T02:35:51.899Z,990.79
2019-01-24T02:36:51.911Z,990.82
2019-01-24T02:37:51.924Z,990.81
2019-01-24T02:38:51.938Z,990.79
2019-01-24T02:39:51.950Z,990.77
2019-01-24T02:40:51.967Z,990.79
2019-01-24T02:41:51.981Z,990.79
2019-01-24T02:42:51.992Z,990.82
2019-01-24T02:43:52.003Z,990.84
2019-01-24T02:44:52.016Z,990.81
2019-01-24T02:45:52.028Z,990.79
2019-01-24T02:46:52.053Z,990.82
2019-01-24T02:47:52.056Z,990.82
2019-01-24T02:48:52.072Z,990.79
2019-01-24T02:49:52.082Z,990.78
2019-01-24T02:50:52.097Z,990.78
2019-01-24T02:51:52.106Z,990.78
2019-01-24T02:52:52.121Z,990.76
2019-01-24T02:53:52.134Z,990.83
2019-01-24T02:54:52.148Z,990.82
2019-01-24T02:55:52.158Z,990.79
2019-01-24T02:56:52.176Z,990.82
2019-01-24T02:57:52.187Z,990.86
2019-01-24T02:58:52.200Z,990.79
2019-01-24T02:59:52.213Z,990.79
2019-01-24T03:00:52.225Z,990.77
2019-01-24T03:01:52.239Z,990.8
2019-01-24T03:02:52.253Z,990.74
2019-01-24T03:03:52.268Z,990.79
2019-01-24T03:04:56.840Z,990.76
2019-01-24T03:05:52.297Z,990.74
2019-01-24T03:06:52.308Z,990.74
2019-01-24T03:07:52.318Z,990.76
2019-01-24T03:08:52.335Z,990.74
2019-01-24T03:09:52.343Z,990.74
2019-01-24T03:10:52.362Z,990.77
2019-01-24T03:11:52.373Z,990.75
2019-01-24T03:12:52.387Z,990.76
2019-01-24T03:13:52.403Z,990.8
2019-01-24T03:14:52.412Z,990.81
2019-01-24T03:15:52.427Z,990.79
2019-01-24T03:16:52.435Z,990.86
2019-01-24T03:17:52.449Z,990.85
2019-01-24T03:18:52.466Z,990.83
2019-01-24T03:19:52.475Z,990.84
2019-01-24T03:20:52.488Z,990.85
2019-01-24T03:21:52.505Z,990.88
2019-01-24T03:22:52.515Z,990.88
2019-01-24T03:23:52.530Z,990.9
2019-01-24T03:24:52.545Z,990.98
2019-01-24T03:25:52.554Z,990.98
2019-01-24T03:26:52.568Z,990.97
2019-01-24T03:27:52.579Z,991.01
2019-01-24T03:28:52.597Z,990.96
2019-01-24T03:29:52.607Z,990.98
2019-01-24T03:30:52.621Z,991.01
2019-01-24T03:31:52.637Z,991.01
2019-01-24T03:32:52.650Z,991
2019-01-24T03:33:52.659Z,991
2019-01-24T03:34:52.675Z,990.96
2019-01-24T03:35:52.687Z,990.97
2019-01-24T03:36:52.703Z,990.96
2019-01-24T03:37:52.713Z,991
2019-01-24T03:38:52.728Z,990.94
2019-01-24T03:39:52.742Z,990.91
2019-01-24T03:40:52.750Z,990.95
2019-01-24T03:41:52.764Z,990.93
2019-01-24T03:42:52.788Z,990.95
2019-01-24T03:43:52.789Z,990.93
2019-01-24T03:44:52.806Z,990.94
2019-01-24T03:45:52.820Z,991
2019-01-24T03:46:52.830Z,990.93
2019-01-24T03:47:52.847Z,990.99
2019-01-24T03:48:52.856Z,990.98
2019-01-24T03:49:52.873Z,990.96
2019-01-24T03:50:52.882Z,990.99
2019-01-24T03:51:52.894Z,991.02
2019-01-24T03:52:52.908Z,991.01
2019-01-24T03:53:52.921Z,991.05
2019-01-24T03:54:52.938Z,991.01
2019-01-24T03:55:52.949Z,991.05
2019-01-24T03:56:52.961Z,991.04
2019-01-24T03:57:52.978Z,991.05
2019-01-24T03:58:52.993Z,991.07
2019-01-24T03:59:53.003Z,991.13
2019-01-24T04:00:53.017Z,991.13
2019-01-24T04:01:53.027Z,991.15
2019-01-24T04:02:53.040Z,991.2
2019-01-24T04:03:53.054Z,991.2
2019-01-24T04:04:53.367Z,991.18
2019-01-24T04:05:53.087Z,991.17
2019-01-24T04:06:53.094Z,991.19
2019-01-24T04:07:53.109Z,991.18
2019-01-24T04:08:53.123Z,991.19
2019-01-24T04:09:53.137Z,991.17
2019-01-24T04:10:53.147Z,991.13
2019-01-24T04:11:53.163Z,991.16
2019-01-24T04:12:53.176Z,991.18
2019-01-24T04:13:53.188Z,991.18
2019-01-24T04:14:53.203Z,991.17
2019-01-24T04:15:53.217Z,991.21
2019-01-24T04:16:53.233Z,991.24
2019-01-24T04:17:53.240Z,991.21
2019-01-24T04:18:53.251Z,991.25
2019-01-24T04:19:53.263Z,991.27
2019-01-24T04:20:53.278Z,991.29
2019-01-24T04:21:53.295Z,991.21
2019-01-24T04:22:53.308Z,991.21
2019-01-24T04:23:53.317Z,991.22
2019-01-24T04:24:53.580Z,991.23
2019-01-24T04:25:53.344Z,991.2
2019-01-24T04:26:53.357Z,991.21
2019-01-24T04:27:53.369Z,991.24
2019-01-24T04:28:53.383Z,991.2
2019-01-24T04:29:53.445Z,991.22
2019-01-24T04:30:53.410Z,991.22
2019-01-24T04:31:53.421Z,991.18
2019-01-24T04:32:53.434Z,991.22
2019-01-24T04:33:53.448Z,991.2
2019-01-24T04:34:53.465Z,991.21
2019-01-24T04:35:53.474Z,991.2
2019-01-24T04:36:53.501Z,991.22
2019-01-24T04:37:53.535Z,991.16
2019-01-24T04:38:53.517Z,991.21
2019-01-24T04:39:53.534Z,991.19
2019-01-24T04:40:53.539Z,991.2
2019-01-24T04:41:53.554Z,991.26
2019-01-24T04:42:53.567Z,991.24
2019-01-24T04:43:53.579Z,991.28
2019-01-24T04:44:53.747Z,991.31
2019-01-24T04:45:53.608Z,991.28
2019-01-24T04:46:53.622Z,991.32
2019-01-24T04:47:53.631Z,991.32
2019-01-24T04:48:53.652Z,991.29
2019-01-24T04:49:53.858Z,991.32
2019-01-24T04:50:53.673Z,991.3
2019-01-24T04:51:53.685Z,991.34
2019-01-24T04:52:53.697Z,991.29
2019-01-24T04:53:53.715Z,991.29
2019-01-24T04:54:53.727Z,991.33
2019-01-24T04:55:53.740Z,991.34
2019-01-24T04:56:53.752Z,991.34
2019-01-24T04:57:54.948Z,991.33
2019-01-24T04:58:53.777Z,991.32
2019-01-24T04:59:53.790Z,991.33
2019-01-24T05:00:53.802Z,991.35
2019-01-24T05:01:53.816Z,991.33
2019-01-24T05:02:53.827Z,991.36
2019-01-24T05:03:53.840Z,991.39
2019-01-24T05:04:54.155Z,991.37
2019-01-24T05:05:53.867Z,991.36
2019-01-24T05:06:53.881Z,991.33
2019-01-24T05:07:53.893Z,991.35
2019-01-24T05:08:53.912Z,991.38
2019-01-24T05:09:53.923Z,991.41
2019-01-24T05:10:53.938Z,991.42
2019-01-24T05:11:53.946Z,991.41
2019-01-24T05:12:53.959Z,991.41
2019-01-24T05:13:53.978Z,991.45
2019-01-24T05:14:53.984Z,991.47
2019-01-24T05:15:53.999Z,991.47
2019-01-24T05:16:54.013Z,991.47
2019-01-24T05:17:54.025Z,991.53
2019-01-24T05:18:54.042Z,991.48
2019-01-24T05:19:54.052Z,991.49
2019-01-24T05:20:54.071Z,991.53
2019-01-24T05:21:54.081Z,991.51
2019-01-24T05:22:54.090Z,991.52
2019-01-24T05:23:54.111Z,991.57
2019-01-24T05:24:54.123Z,991.57
2019-01-24T05:25:54.134Z,991.6
2019-01-24T05:26:54.148Z,991.6
2019-01-24T05:27:54.155Z,991.61
2019-01-24T05:28:54.169Z,991.6
2019-01-24T05:29:54.182Z,991.69
2019-01-24T05:30:54.196Z,991.69
2019-01-24T05:31:54.209Z,991.72
2019-01-24T05:32:55.332Z,991.72
2019-01-24T05:33:54.238Z,991.7
2019-01-24T05:34:54.248Z,991.78
2019-01-24T05:35:54.267Z,991.8
2019-01-24T05:36:54.275Z,991.77
2019-01-24T05:37:54.290Z,991.82
2019-01-24T05:38:54.304Z,991.8
2019-01-24T05:39:54.318Z,991.84
2019-01-24T05:40:54.327Z,991.89
2019-01-24T05:41:54.341Z,991.88
2019-01-24T05:42:54.357Z,991.92
2019-01-24T05:43:54.367Z,991.95
2019-01-24T05:44:54.380Z,991.97
2019-01-24T05:45:54.392Z,991.98
2019-01-24T05:46:54.410Z,991.97
2019-01-24T05:47:54.419Z,991.97
2019-01-24T05:48:54.437Z,991.98
2019-01-24T05:49:54.447Z,992
2019-01-24T05:50:54.458Z,992.02
2019-01-24T05:51:54.472Z,992.04
2019-01-24T05:52:54.484Z,992.03
2019-01-24T05:53:54.499Z,992.07
2019-01-24T05:54:54.510Z,992.06
2019-01-24T05:55:54.528Z,992.08
2019-01-24T05:56:54.538Z,992.05
2019-01-24T05:57:54.554Z,992.05
2019-01-24T05:58:54.563Z,992.08
2019-01-24T05:59:54.576Z,992.1
2019-01-24T06:00:55.266Z,992.07
2019-01-24T06:01:54.605Z,992.11
2019-01-24T06:02:54.615Z,992.07
2019-01-24T06:03:54.630Z,992.12
2019-01-24T06:04:54.642Z,992.14
2019-01-24T06:05:54.660Z,992.16
2019-01-24T06:06:54.668Z,992.21
2019-01-24T06:07:54.682Z,992.17
2019-01-24T06:08:54.699Z,992.18
2019-01-24T06:09:54.708Z,992.18
2019-01-24T06:10:54.721Z,992.2
2019-01-24T06:11:54.734Z,992.21
2019-01-24T06:12:54.748Z,992.21
2019-01-24T06:13:54.759Z,992.2
2019-01-24T06:14:54.778Z,992.25
2019-01-24T06:15:54.791Z,992.24
2019-01-24T06:16:54.801Z,992.19
2019-01-24T06:17:54.817Z,992.19
2019-01-24T06:18:54.831Z,992.19
2019-01-24T06:19:54.847Z,992.21
2019-01-24T06:20:54.859Z,992.21
2019-01-24T06:21:54.878Z,992.21
2019-01-24T06:22:54.880Z,992.22
2019-01-24T06:23:54.893Z,992.26
2019-01-24T06:24:54.905Z,992.26
2019-01-24T06:25:54.918Z,992.3
2019-01-24T06:26:54.936Z,992.34
2019-01-24T06:27:54.944Z,992.33
2019-01-24T06:28:54.959Z,992.35
2019-01-24T06:29:54.970Z,992.41
2019-01-24T06:30:54.986Z,992.38
2019-01-24T06:31:54.997Z,992.39
2019-01-24T06:32:55.012Z,992.36
2019-01-24T06:33:55.029Z,992.32
2019-01-24T06:34:55.042Z,992.35
2019-01-24T06:35:55.051Z,992.29
2019-01-24T06:36:55.064Z,992.34
2019-01-24T06:37:55.089Z,992.31
2019-01-24T06:38:55.090Z,992.32
2019-01-24T06:39:55.102Z,992.33
2019-01-24T06:40:55.121Z,992.3
2019-01-24T06:41:55.131Z,992.28
2019-01-24T06:42:55.143Z,992.3
2019-01-24T06:43:55.156Z,992.3
2019-01-24T06:44:55.170Z,992.32
2019-01-24T06:45:55.184Z,992.33
2019-01-24T06:46:55.198Z,992.33
2019-01-24T06:47:55.217Z,992.34
2019-01-24T06:48:55.225Z,992.34
2019-01-24T06:49:55.239Z,992.36
2019-01-24T06:50:55.297Z,992.38
2019-01-24T06:51:55.269Z,992.37
2019-01-24T06:52:55.276Z,992.4
2019-01-24T06:53:55.286Z,992.4
2019-01-24T06:54:55.301Z,992.39
2019-01-24T06:55:55.315Z,992.39
2019-01-24T06:56:55.327Z,992.42
2019-01-24T06:57:55.339Z,992.42
2019-01-24T06:58:55.357Z,992.45
2019-01-24T06:59:55.368Z,992.4
2019-01-24T07:00:55.380Z,992.48
2019-01-24T07:01:55.393Z,992.48
2019-01-24T07:02:55.435Z,992.49
2019-01-24T07:03:55.422Z,992.5
2019-01-24T07:04:55.432Z,992.49
2019-01-24T07:05:55.598Z,992.51
2019-01-24T07:06:55.458Z,992.5
2019-01-24T07:07:55.472Z,992.54
2019-01-24T07:08:55.489Z,992.51
2019-01-24T07:09:55.502Z,992.54
2019-01-24T07:10:55.562Z,992.52
2019-01-24T07:11:55.523Z,992.55
2019-01-24T07:12:55.541Z,992.57
2019-01-24T07:13:55.550Z,992.62
2019-01-24T07:14:55.571Z,992.64
2019-01-24T07:15:55.575Z,992.68
2019-01-24T07:16:55.589Z,992.73
2019-01-24T07:17:55.605Z,992.72
2019-01-24T07:18:55.616Z,992.75
2019-01-24T07:19:55.630Z,992.75
2019-01-24T07:20:55.644Z,992.81
2019-01-24T07:21:55.656Z,992.8
2019-01-24T07:22:55.668Z,992.85
2019-01-24T07:23:55.686Z,992.89
2019-01-24T07:24:55.700Z,992.93
2019-01-24T07:25:55.763Z,992.92
2019-01-24T07:26:55.721Z,992.96
2019-01-24T07:27:55.738Z,992.99
2019-01-24T07:28:55.751Z,992.99
2019-01-24T07:29:55.759Z,993
2019-01-24T07:30:55.774Z,993.02
2019-01-24T07:31:55.786Z,993.01
2019-01-24T07:32:55.800Z,993.05
2019-01-24T07:33:55.815Z,993.04
2019-01-24T07:34:55.826Z,993.04
2019-01-24T07:36:01.960Z,993.01
2019-01-24T07:36:55.854Z,992.99
2019-01-24T07:37:55.865Z,993.05
2019-01-24T07:38:55.879Z,993.02
2019-01-24T07:39:55.896Z,993.03
2019-01-24T07:40:55.903Z,993.07
2019-01-24T07:41:55.923Z,993.08
2019-01-24T07:42:55.929Z,993.11
2019-01-24T07:43:55.945Z,993.12
2019-01-24T07:44:55.961Z,993.13
2019-01-24T07:45:55.970Z,993.13
2019-01-24T07:46:55.983Z,993.12
2019-01-24T07:47:56.001Z,993.12
2019-01-24T07:48:56.009Z,993.13
2019-01-24T07:49:56.027Z,993.18
2019-01-24T07:50:56.036Z,993.17
2019-01-24T07:51:56.047Z,993.19
2019-01-24T07:52:56.059Z,993.15
2019-01-24T07:53:56.095Z,993.17
2019-01-24T07:54:56.093Z,993.18
2019-01-24T07:55:56.102Z,993.22
2019-01-24T07:56:56.119Z,993.21
2019-01-24T07:57:56.131Z,993.2
2019-01-24T07:58:56.141Z,993.23
2019-01-24T07:59:56.158Z,993.26
2019-01-24T08:00:56.168Z,993.26
2019-01-24T08:01:56.183Z,993.25
2019-01-24T08:02:56.198Z,993.22
2019-01-24T08:03:56.209Z,993.2
2019-01-24T08:04:56.219Z,993.18
2019-01-24T08:05:56.237Z,993.2
2019-01-24T08:06:56.245Z,993.21
2019-01-24T08:07:56.258Z,993.21
2019-01-24T08:08:56.276Z,993.21
2019-01-24T08:09:56.289Z,993.18
2019-01-24T08:10:56.301Z,993.17
2019-01-24T08:11:56.311Z,993.22
2019-01-24T08:12:56.324Z,993.19
2019-01-24T08:13:56.341Z,993.17
2019-01-24T08:14:56.350Z,993.18
2019-01-24T08:15:56.364Z,993.2
2019-01-24T08:16:56.381Z,993.24
2019-01-24T08:17:56.389Z,993.22
2019-01-24T08:18:56.402Z,993.2
2019-01-24T08:19:56.417Z,993.28
2019-01-24T08:20:56.430Z,993.29
2019-01-24T08:21:57.271Z,993.34
2019-01-24T08:22:56.456Z,993.38
2019-01-24T08:23:56.468Z,993.4
2019-01-24T08:24:56.486Z,993.41
2019-01-24T08:25:56.495Z,993.41
2019-01-24T08:26:56.508Z,993.43
2019-01-24T08:27:56.522Z,993.42
2019-01-24T08:28:56.534Z,993.47
2019-01-24T08:29:56.547Z,993.49
2019-01-24T08:30:56.566Z,993.52
2019-01-24T08:31:56.581Z,993.54
2019-01-24T08:32:56.591Z,993.55
2019-01-24T08:33:56.600Z,993.66
2019-01-24T08:34:56.613Z,993.57
2019-01-24T08:35:56.626Z,993.59
2019-01-24T08:36:56.639Z,993.64
2019-01-24T08:37:56.652Z,993.66
2019-01-24T08:38:56.666Z,993.64
2019-01-24T08:39:56.679Z,993.62
2019-01-24T08:40:56.696Z,993.68
2019-01-24T08:41:56.705Z,993.7
2019-01-24T08:42:56.723Z,993.64
2019-01-24T08:43:56.733Z,993.66
2019-01-24T08:44:56.746Z,993.66
2019-01-24T08:45:56.760Z,993.65
2019-01-24T08:46:56.776Z,993.64
2019-01-24T08:47:56.785Z,993.68
2019-01-24T08:48:56.798Z,993.73
2019-01-24T08:49:56.812Z,993.74
2019-01-24T08:50:56.824Z,993.79
2019-01-24T08:51:56.837Z,993.79
2019-01-24T08:52:56.849Z,993.83
2019-01-24T08:53:56.864Z,993.81
2019-01-24T08:54:56.877Z,993.81
2019-01-24T08:55:56.890Z,993.79
2019-01-24T08:56:56.903Z,993.79
2019-01-24T08:57:56.916Z,993.8
2019-01-24T08:58:56.937Z,993.79
2019-01-24T08:59:56.944Z,993.77
2019-01-24T09:00:56.956Z,993.82
2019-01-24T09:01:56.971Z,993.78
2019-01-24T09:02:56.984Z,993.78
2019-01-24T09:03:57.000Z,993.8
2019-01-24T09:04:57.010Z,993.83
2019-01-24T09:05:57.023Z,993.85
2019-01-24T09:06:57.037Z,993.81
2019-01-24T09:07:57.051Z,993.88
2019-01-24T09:08:57.061Z,993.86
2019-01-24T09:09:57.079Z,993.84
2019-01-24T09:10:57.117Z,993.83
2019-01-24T09:11:57.101Z,993.84
2019-01-24T09:12:57.114Z,993.86
2019-01-24T09:13:57.129Z,993.88
2019-01-24T09:14:57.146Z,993.91
2019-01-24T09:15:57.159Z,993.93
2019-01-24T09:16:57.171Z,993.88
2019-01-24T09:17:57.185Z,993.97
2019-01-24T09:18:57.194Z,993.97
2019-01-24T09:19:57.208Z,993.98
2019-01-24T09:20:57.220Z,993.97
2019-01-24T09:21:57.233Z,993.95
2019-01-24T09:22:57.248Z,993.95
2019-01-24T09:23:57.260Z,993.96
2019-01-24T09:24:57.273Z,993.98
2019-01-24T09:25:57.286Z,993.99
2019-01-24T09:26:57.298Z,994
2019-01-24T09:27:57.312Z,994.01
2019-01-24T09:28:57.331Z,994
2019-01-24T09:29:57.338Z,994.03
2019-01-24T09:30:57.352Z,994.02
2019-01-24T09:31:57.369Z,994.03
2019-01-24T09:32:57.383Z,994.03
2019-01-24T09:33:57.397Z,994.05
2019-01-24T09:34:57.405Z,994.06
2019-01-24T09:35:57.419Z,994.05
2019-01-24T09:36:57.432Z,994.03
2019-01-24T09:37:57.444Z,994.08
2019-01-24T09:38:57.463Z,994.05
2019-01-24T09:39:57.471Z,994.04
2019-01-24T09:40:57.485Z,994.04
2019-01-24T09:41:57.498Z,994.04
2019-01-24T09:42:57.516Z,994.01
2019-01-24T09:43:57.530Z,994.05
2019-01-24T09:44:57.544Z,994.04
2019-01-24T09:45:57.553Z,994.09
2019-01-24T09:46:57.567Z,994.09
2019-01-24T09:47:57.580Z,994.11
2019-01-24T09:48:57.597Z,994.08
2019-01-24T09:49:57.607Z,994.06
2019-01-24T09:50:57.619Z,994.09
2019-01-24T09:51:57.633Z,994.12
2019-01-24T09:52:57.645Z,994.11
2019-01-24T09:53:57.659Z,994.11
2019-01-24T09:54:57.672Z,994.16
2019-01-24T09:55:57.687Z,994.19
2019-01-24T09:56:57.698Z,994.14
2019-01-24T09:57:57.715Z,994.12
2019-01-24T09:58:57.726Z,994.12
2019-01-24T09:59:57.740Z,994.15
2019-01-24T10:00:57.755Z,994.12
2019-01-24T10:01:57.767Z,994.12
2019-01-24T10:02:57.790Z,994.11
2019-01-24T10:03:57.794Z,994.1
2019-01-24T10:04:57.807Z,994.1
2019-01-24T10:05:57.821Z,994.11
2019-01-24T10:06:57.834Z,994.11
2019-01-24T10:07:57.849Z,994.11
2019-01-24T10:08:57.862Z,994.12
2019-01-24T10:09:57.881Z,994.13
2019-01-24T10:10:57.889Z,994.16
2019-01-24T10:11:57.901Z,994.16
2019-01-24T10:12:57.916Z,994.17
2019-01-24T10:13:57.929Z,994.14
2019-01-24T10:14:57.944Z,994.16
2019-01-24T10:15:57.956Z,994.12
2019-01-24T10:16:57.971Z,994.18
2019-01-24T10:17:57.985Z,994.21
2019-01-24T10:18:57.998Z,994.21
2019-01-24T10:19:58.010Z,994.18
2019-01-24T10:20:58.024Z,994.22
2019-01-24T10:21:58.036Z,994.24
2019-01-24T10:22:58.050Z,994.21
2019-01-24T10:23:58.066Z,994.19
2019-01-24T10:24:58.083Z,994.18
2019-01-24T10:25:58.095Z,994.19
2019-01-24T10:26:58.110Z,994.19
2019-01-24T10:27:58.119Z,994.18
2019-01-24T10:28:58.131Z,994.21
2019-01-24T10:29:58.149Z,994.23
2019-01-24T10:30:58.164Z,994.22
2019-01-24T10:31:58.178Z,994.27
2019-01-24T10:32:58.186Z,994.23
2019-01-24T10:33:58.199Z,994.29
2019-01-24T10:34:58.218Z,994.26
2019-01-24T10:35:58.227Z,994.27
2019-01-24T10:36:58.244Z,994.26
2019-01-24T10:37:58.258Z,994.27
2019-01-24T10:38:58.267Z,994.24
2019-01-24T10:39:58.283Z,994.25
2019-01-24T10:40:58.295Z,994.25
2019-01-24T10:41:58.308Z,994.26
2019-01-24T10:42:58.325Z,994.25
2019-01-24T10:43:58.334Z,994.31
2019-01-24T10:44:58.348Z,994.28
2019-01-24T10:45:58.362Z,994.27
2019-01-24T10:46:58.382Z,994.32
2019-01-24T10:47:58.388Z,994.37
2019-01-24T10:48:58.402Z,994.31
2019-01-24T10:49:58.418Z,994.32
2019-01-24T10:50:58.428Z,994.29
2019-01-24T10:51:58.447Z,994.21
2019-01-24T10:52:58.456Z,994.21
2019-01-24T10:53:58.470Z,994.2
2019-01-24T10:54:58.484Z,994.13
2019-01-24T10:55:58.498Z,994.18
2019-01-24T10:56:58.520Z,994.23
2019-01-24T10:57:58.524Z,994.23
2019-01-24T10:58:58.537Z,994.2
2019-01-24T10:59:58.553Z,994.21
2019-01-24T11:00:58.566Z,994.25
2019-01-24T11:01:58.577Z,994.28
2019-01-24T11:02:58.592Z,994.29
2019-01-24T11:03:58.605Z,994.25
2019-01-24T11:04:58.620Z,994.23
2019-01-24T11:05:58.636Z,994.22
2019-01-24T11:06:58.645Z,994.26
2019-01-24T11:07:58.659Z,994.28
2019-01-24T11:08:58.676Z,994.29
2019-01-24T11:09:58.690Z,994.27
2019-01-24T11:10:58.700Z,994.27
2019-01-24T11:11:58.718Z,994.23
2019-01-24T11:12:58.726Z,994.27
2019-01-24T11:13:58.740Z,994.24
2019-01-24T11:14:58.756Z,994.24
2019-01-24T11:15:58.769Z,994.22
2019-01-24T11:16:58.784Z,994.26
2019-01-24T11:17:58.794Z,994.23
2019-01-24T11:18:58.809Z,994.26
2019-01-24T11:19:58.822Z,994.19
2019-01-24T11:20:58.837Z,994.2
2019-01-24T11:21:58.850Z,994.19
2019-01-24T11:22:58.864Z,994.16
2019-01-24T11:23:58.876Z,994.18
2019-01-24T11:24:58.890Z,994.14
2019-01-24T11:25:58.906Z,994.17
2019-01-24T11:26:58.921Z,994.15
2019-01-24T11:27:58.929Z,994.17
2019-01-24T11:28:58.946Z,994.15
2019-01-24T11:29:58.957Z,994.15
2019-01-24T11:30:58.975Z,994.15
2019-01-24T11:31:58.984Z,994.1
2019-01-24T11:32:58.998Z,994.14
2019-01-24T11:33:59.013Z,994.09
2019-01-24T11:34:59.026Z,994.14
2019-01-24T11:35:59.042Z,994.1
2019-01-24T11:36:59.054Z,994.05
2019-01-24T11:37:59.069Z,994.06
2019-01-24T11:38:59.078Z,994.05
2019-01-24T11:39:59.093Z,994.03
2019-01-24T11:40:59.111Z,994.01
2019-01-24T11:41:59.124Z,994.04
2019-01-24T11:42:59.133Z,994.03
2019-01-24T11:43:59.148Z,994.02
2019-01-24T11:44:59.162Z,994.02
2019-01-24T11:45:59.175Z,994.05
2019-01-24T11:46:59.191Z,994.03
2019-01-24T11:47:59.203Z,994.02
2019-01-24T11:48:59.216Z,994.04
2019-01-24T11:49:59.229Z,994.02
2019-01-24T11:50:59.241Z,994.05
2019-01-24T11:51:59.256Z,994.02
2019-01-24T11:52:59.272Z,994.04
2019-01-24T11:53:59.285Z,994.03
2019-01-24T11:54:59.302Z,993.99
2019-01-24T11:55:59.312Z,993.99
2019-01-24T11:56:59.327Z,993.99
2019-01-24T11:57:59.343Z,993.92
2019-01-24T11:58:59.353Z,993.92
2019-01-24T11:59:59.368Z,993.85
2019-01-24T12:00:59.379Z,993.86
2019-01-24T12:01:59.393Z,993.86
2019-01-24T12:02:59.408Z,993.88
2019-01-24T12:03:59.419Z,993.85
2019-01-24T12:04:59.439Z,993.82
2019-01-24T12:05:59.452Z,993.84
2019-01-24T12:07:04.039Z,993.85
2019-01-24T12:07:59.477Z,993.86
2019-01-24T12:08:59.490Z,993.85
2019-01-24T12:09:59.507Z,993.79
2019-01-24T12:10:59.521Z,993.79
2019-01-24T12:11:59.529Z,993.8
2019-01-24T12:12:59.544Z,993.85
2019-01-24T12:13:59.562Z,993.85
2019-01-24T12:14:59.571Z,993.84
2019-01-24T12:15:59.584Z,993.87
2019-01-24T12:16:59.598Z,993.89
2019-01-24T12:17:59.613Z,993.93
2019-01-24T12:18:59.626Z,993.92
2019-01-24T12:19:59.640Z,993.9
2019-01-24T12:20:59.653Z,993.91
2019-01-24T12:21:59.666Z,993.92
2019-01-24T12:22:59.689Z,993.88
2019-01-24T12:23:59.694Z,993.86
2019-01-24T12:24:59.709Z,993.9
2019-01-24T12:25:59.725Z,993.91
2019-01-24T12:26:59.734Z,993.91
2019-01-24T12:27:59.748Z,993.92
2019-01-24T12:28:59.763Z,993.93
2019-01-24T12:29:59.780Z,993.87
2019-01-24T12:30:59.793Z,993.86